Terminal Aerodrome Forecast
Issued by NWS Raleigh/Durham, NC

Home | Current Version | Previous Version | Text Only | Print | Product List | Glossary On
Versions: 1 2 3 4 5 6 7 8 9 10 11 12 13 14 15 16 17 18 19 20 21 22 23 24 25 26 27 28 29
000
FTUS42 KRAH 050939 AAC
TAFRDU
TAF AMD
KRDU 050939Z 0510/0606 00000KT 5SM BR OVC003
      TEMPO 0510/0512 1/2SM FG OVC001
     FM051400 01006KT 6SM -SHRA BR OVC015
     FM051700 36005KT 6SM -SHRA BR OVC035
     FM052100 33010KT 3SM SHRA BR OVC012=

USA.gov is the U.S. government's official web portal to all federal, state and local government web resources and services.